createdAt,value
2023-03-24T00:01:11.494Z,11.46
2023-03-24T00:06:13.292Z,11.61
2023-03-24T00:11:11.845Z,11.43
2023-03-24T00:16:12.050Z,11.48
2023-03-24T00:21:10.982Z,11.16
2023-03-24T00:26:11.832Z,11.46
2023-03-24T00:31:10.397Z,11.45
2023-03-24T00:36:11.397Z,11.41
2023-03-24T00:41:10.015Z,11.34
2023-03-24T00:46:10.848Z,11.13
2023-03-24T00:51:10.260Z,11.26
2023-03-24T00:56:08.525Z,11.02
2023-03-24T01:01:06.529Z,11.26
2023-03-24T01:06:04.649Z,11.09
2023-03-24T01:11:04.146Z,10.66
2023-03-24T01:16:01.295Z,11.07
2023-03-24T01:20:58.712Z,10.79
2023-03-24T01:25:55.523Z,10.98
2023-03-24T01:30:54.083Z,10.60
2023-03-24T01:35:51.054Z,10.76
2023-03-24T01:40:48.217Z,10.93
2023-03-24T01:46:13.031Z,10.75
2023-03-24T01:51:14.997Z,10.98
2023-03-24T01:56:13.157Z,10.83
2023-03-24T02:01:13.889Z,10.71
2023-03-24T02:06:34.699Z,10.65
2023-03-24T02:11:35.566Z,10.72
2023-03-24T02:16:49.388Z,10.78
2023-03-24T02:22:28.664Z,10.92
2023-03-24T02:27:45.530Z,10.76
2023-03-24T02:33:06.470Z,10.54
2023-03-24T02:38:24.497Z,10.86
2023-03-24T02:43:33.223Z,10.89
2023-03-24T02:48:37.202Z,10.66
2023-03-24T02:53:43.231Z,10.88
2023-03-24T02:58:58.161Z,10.58
2023-03-24T03:03:59.163Z,10.88
2023-03-24T03:08:59.828Z,10.72
2023-03-24T03:14:02.213Z,10.65
2023-03-24T03:19:02.986Z,10.66
2023-03-24T03:24:06.236Z,10.20
2023-03-24T03:29:11.416Z,10.05
2023-03-24T03:34:17.271Z,9.88
2023-03-24T03:39:19.238Z,10.08
2023-03-24T03:44:17.149Z,10.14
2023-03-24T03:49:14.315Z,9.85
2023-03-24T03:54:14.194Z,10.20
2023-03-24T03:59:24.402Z,10.03
2023-03-24T04:04:53.255Z,10.05
2023-03-24T04:10:21.049Z,9.71
2023-03-24T04:15:43.480Z,10.15
2023-03-24T04:21:15.497Z,10.11
2023-03-24T04:26:25.646Z,9.78
2023-03-24T04:31:29.435Z,10.07
2023-03-24T04:36:33.863Z,9.37
2023-03-24T04:41:52.556Z,10.12
2023-03-24T04:47:02.065Z,9.92
2023-03-24T04:51:59.387Z,9.93
2023-03-24T04:57:01.106Z,10.34
2023-03-24T05:02:00.943Z,10.34
2023-03-24T05:07:01.104Z,10.50
2023-03-24T05:11:59.276Z,10.84
2023-03-24T05:17:01.458Z,11.28
2023-03-24T05:21:59.214Z,11.46
2023-03-24T05:26:59.578Z,12.70
2023-03-24T05:32:08.805Z,13.88
2023-03-24T05:37:13.701Z,15.39
2023-03-24T05:42:15.674Z,17.36
2023-03-24T05:47:21.364Z,18.64
2023-03-24T05:52:22.064Z,19.90
2023-03-24T05:57:21.147Z,21.91
2023-03-24T06:02:39.300Z,23.00
2023-03-24T06:07:51.897Z,22.37
2023-03-24T06:12:50.438Z,21.24
2023-03-24T06:17:49.552Z,20.32
2023-03-24T06:23:03.009Z,19.30
2023-03-24T06:28:13.697Z,18.55
2023-03-24T06:33:13.387Z,18.05
2023-03-24T06:38:13.808Z,17.79
2023-03-24T06:43:11.731Z,18.85
2023-03-24T06:48:11.975Z,21.56
2023-03-24T06:53:09.316Z,23.85
2023-03-24T06:58:08.174Z,25.88
2023-03-24T07:03:26.453Z,27.87
2023-03-24T07:08:46.384Z,29.05
2023-03-24T07:13:44.063Z,30.54
2023-03-24T07:18:41.581Z,31.32
2023-03-24T07:23:43.572Z,31.92
2023-03-24T07:28:44.557Z,32.70
2023-03-24T07:33:43.351Z,33.51
2023-03-24T07:38:40.346Z,34.10
2023-03-24T07:43:41.979Z,34.02
2023-03-24T07:49:01.281Z,34.61
2023-03-24T07:54:05.995Z,35.18
2023-03-24T07:59:09.877Z,35.34
2023-03-24T08:04:31.930Z,35.50
2023-03-24T08:09:51.958Z,35.86
2023-03-24T08:14:48.750Z,35.72
2023-03-24T08:19:59.113Z,35.60
2023-03-24T08:25:03.398Z,35.84
2023-03-24T08:30:00.434Z,35.99
2023-03-24T08:34:58.490Z,35.90
2023-03-24T08:40:00.207Z,36.22
2023-03-24T08:44:58.038Z,35.94
2023-03-24T08:50:12.217Z,36.21
2023-03-24T08:55:23.646Z,36.02
2023-03-24T09:00:22.291Z,35.93
2023-03-24T09:05:32.869Z,35.41
2023-03-24T09:10:34.153Z,35.89
2023-03-24T09:15:35.542Z,36.00
2023-03-24T09:20:33.461Z,35.91
2023-03-24T09:25:32.564Z,35.72
2023-03-24T09:30:30.992Z,35.85
2023-03-24T09:35:29.224Z,35.62
2023-03-24T09:40:29.299Z,35.83
2023-03-24T09:45:28.883Z,35.57
2023-03-24T09:50:28.869Z,35.85
2023-03-24T09:55:28.842Z,35.73
2023-03-24T10:00:28.790Z,35.77
2023-03-24T10:05:31.107Z,35.55
2023-03-24T10:10:35.089Z,35.42
2023-03-24T10:15:38.577Z,35.32
2023-03-24T10:20:44.090Z,35.08
2023-03-24T10:25:51.248Z,35.26
2023-03-24T10:30:50.370Z,35.49
2023-03-24T10:35:55.613Z,34.97
2023-03-24T10:40:54.511Z,34.38
2023-03-24T10:45:53.563Z,33.81
2023-03-24T10:50:51.535Z,32.95
2023-03-24T10:55:50.137Z,32.07
2023-03-24T11:00:48.968Z,31.14
2023-03-24T11:05:46.483Z,30.24
2023-03-24T11:10:46.633Z,29.30
2023-03-24T11:15:55.191Z,28.35
2023-03-24T11:21:35.091Z,27.92
2023-03-24T11:26:36.272Z,27.31
2023-03-24T11:31:40.182Z,26.80
2023-03-24T11:37:05.041Z,26.41
2023-03-24T11:42:06.222Z,25.98
2023-03-24T11:47:13.051Z,25.48
2023-03-24T11:52:20.056Z,25.59
2023-03-24T11:57:28.790Z,25.13
2023-03-24T12:02:48.017Z,25.11
2023-03-24T12:08:11.347Z,25.15
2023-03-24T12:13:22.182Z,24.67
2023-03-24T12:18:58.120Z,24.62
2023-03-24T12:23:58.726Z,24.44
2023-03-24T12:29:05.361Z,24.45
2023-03-24T12:34:15.481Z,24.23
2023-03-24T12:39:16.658Z,24.51
2023-03-24T12:44:50.725Z,24.26
2023-03-24T12:50:00.691Z,24.24
2023-03-24T12:55:04.022Z,24.31
2023-03-24T13:00:08.782Z,24.25
2023-03-24T13:05:18.641Z,24.00
2023-03-24T13:10:19.876Z,23.91
2023-03-24T13:15:21.014Z,23.71
2023-03-24T13:20:26.724Z,23.68
2023-03-24T13:25:33.147Z,23.34
2023-03-24T13:36:15.141Z,23.22
2023-03-24T13:41:23.501Z,23.08
2023-03-24T13:46:20.807Z,23.18
2023-03-24T13:51:27.961Z,22.85
2023-03-24T13:56:31.317Z,22.75
2023-03-24T14:01:34.296Z,22.09
2023-03-24T14:06:46.575Z,22.78
2023-03-24T14:11:48.959Z,22.12
2023-03-24T14:17:02.072Z,22.59
2023-03-24T14:22:11.340Z,22.41
2023-03-24T14:27:34.157Z,22.45
2023-03-24T14:32:38.656Z,22.12
2023-03-24T14:37:47.810Z,22.35
2023-03-24T14:43:05.514Z,22.19
2023-03-24T14:48:06.196Z,22.13
2023-03-24T14:53:04.309Z,21.73
2023-03-24T14:58:11.720Z,21.84
2023-03-24T15:03:18.920Z,21.96
2023-03-24T15:08:20.923Z,21.91
2023-03-24T15:13:41.182Z,22.04
2023-03-24T15:18:57.673Z,21.39
2023-03-24T15:24:00.486Z,21.87
2023-03-24T15:28:59.956Z,21.84
2023-03-24T15:34:08.493Z,21.48
2023-03-24T15:39:20.363Z,21.47
2023-03-24T15:44:20.871Z,21.31
2023-03-24T15:49:25.576Z,20.88
2023-03-24T15:54:25.729Z,21.31
2023-03-24T15:59:25.136Z,21.20
2023-03-24T16:04:24.965Z,20.96
2023-03-24T16:09:26.753Z,20.71
2023-03-24T16:14:26.099Z,20.75
2023-03-24T16:19:23.470Z,20.22
2023-03-24T16:24:20.650Z,20.20
2023-03-24T16:29:19.650Z,20.24
2023-03-24T16:34:18.121Z,19.66
2023-03-24T16:39:16.469Z,19.45
2023-03-24T16:44:13.965Z,19.79
2023-03-24T16:49:14.839Z,19.66
2023-03-24T16:54:11.850Z,19.51
2023-03-24T16:59:09.946Z,19.11
2023-03-24T17:04:09.160Z,19.17
2023-03-24T17:09:07.617Z,18.33
2023-03-24T17:14:07.894Z,18.24
2023-03-24T17:19:05.126Z,18.58
2023-03-24T17:24:03.189Z,18.49
2023-03-24T17:29:06.913Z,18.53
2023-03-24T17:34:15.199Z,18.43
2023-03-24T17:39:19.837Z,18.04
2023-03-24T17:44:17.875Z,17.38
2023-03-24T17:49:23.233Z,17.36
2023-03-24T17:54:33.318Z,18.03
2023-03-24T17:59:31.125Z,17.74
2023-03-24T18:04:28.605Z,17.72
2023-03-24T18:09:31.601Z,17.55
2023-03-24T18:14:31.408Z,17.69
2023-03-24T18:19:35.877Z,17.51
2023-03-24T18:24:54.163Z,17.66
2023-03-24T18:29:55.991Z,17.55
2023-03-24T18:35:05.366Z,17.46
2023-03-24T18:40:09.169Z,17.69
2023-03-24T18:45:08.304Z,17.47
2023-03-24T18:50:09.860Z,17.70
2023-03-24T18:55:20.343Z,17.54
2023-03-24T19:00:19.766Z,17.67
2023-03-24T19:05:18.932Z,17.45
2023-03-24T19:10:21.369Z,17.61
2023-03-24T19:15:25.109Z,17.55
2023-03-24T19:20:24.318Z,17.36
2023-03-24T19:25:24.329Z,17.42
2023-03-24T19:30:25.999Z,17.18
2023-03-24T19:35:23.207Z,17.02
2023-03-24T19:40:23.018Z,17.23
2023-03-24T19:45:20.788Z,17.18
2023-03-24T19:50:18.764Z,17.10
2023-03-24T19:55:16.137Z,16.73
2023-03-24T20:00:16.322Z,16.85
2023-03-24T20:05:14.087Z,16.85
2023-03-24T20:10:13.086Z,16.93
2023-03-24T20:15:10.840Z,16.59
2023-03-24T20:20:12.946Z,16.62
2023-03-24T20:25:12.030Z,16.64
2023-03-24T20:30:10.326Z,16.80
2023-03-24T20:35:12.291Z,16.71
2023-03-24T20:40:10.328Z,16.56
2023-03-24T20:45:10.537Z,16.43
2023-03-24T20:50:08.842Z,15.70
2023-03-24T20:55:08.310Z,16.22
2023-03-24T21:00:13.368Z,16.05
2023-03-24T21:05:11.406Z,15.94
2023-03-24T21:10:09.243Z,15.87
2023-03-24T21:15:07.691Z,15.93
2023-03-24T21:20:08.387Z,15.87
2023-03-24T21:25:07.006Z,15.46
2023-03-24T21:30:04.822Z,15.75
2023-03-24T21:35:01.760Z,15.34
2023-03-24T21:40:01.998Z,15.41
2023-03-24T21:44:59.643Z,15.27
2023-03-24T21:49:58.489Z,15.62
2023-03-24T21:54:57.554Z,15.58
2023-03-24T21:59:54.541Z,15.55
2023-03-24T22:04:52.209Z,15.22
2023-03-24T22:09:50.060Z,15.46
2023-03-24T22:14:47.169Z,15.42
2023-03-24T22:19:44.166Z,15.16
2023-03-24T22:24:41.687Z,15.26
2023-03-24T22:29:39.895Z,15.16
2023-03-24T22:34:36.722Z,14.87
2023-03-24T22:39:33.839Z,15.04
2023-03-24T22:44:31.410Z,14.60
2023-03-24T22:49:28.759Z,14.90
2023-03-24T22:54:26.311Z,14.46
2023-03-24T22:59:24.042Z,14.77
2023-03-24T23:04:21.584Z,14.69
2023-03-24T23:09:18.556Z,14.72
2023-03-24T23:14:17.757Z,14.66
2023-03-24T23:19:14.725Z,14.47
2023-03-24T23:24:12.363Z,14.61
2023-03-24T23:29:09.219Z,14.72
2023-03-24T23:34:06.951Z,14.60
2023-03-24T23:39:04.214Z,14.46
2023-03-24T23:44:01.956Z,14.61
2023-03-24T23:48:58.913Z,14.22
2023-03-24T23:53:55.752Z,14.60
2023-03-24T23:58:52.631Z,14.46
